Latest Weather Observations for Parafield

IDS60801

Issued at 8:31 pm CDT Sunday 24 January 2021 (issued every 10 minutes, with the page automatically refreshed every 10 minutes)

About weather observations | Map of weather stations | Latest weather observations for SA | Other Formats
Station Details ID: 023013 Name: PARAFIELD AIRPORT Lat: -34.80 Lon: 138.63 Height: 9.5 m
Data from the previous 72 hours. | See also: Recent months at Parafield
Date/Time
CDT
Temp
°C
App
Temp
°C
Dew
Point
°C
Rel
Hum
%
Delta-T
°C
Wind Press
QNH
hPa
Press
MSL
hPa
Rain since
9am
mm
Dir  Spd
km/h
Gust
km/h
Spd
kts
Gust
kts
24/08:30pm 32.8 29.2 2.8 15 15.4 SW 11 11 6 6 1001.1 1001.1 0.0
24/08:00pm 33.7 29.3 2.5 14 15.9 SSW 15 19 8 10 1001.0 1001.0 0.0
24/07:30pm 34.6 29.1 4.2 15 16.1 SW 22 28 12 15 1000.9 1000.9 0.0
24/07:00pm 37.5 31.3 2.1 11 18.3 SW 24 33 13 18 1000.7 1000.7 0.0
24/06:30pm 38.5 31.6 2.8 11 18.9 WSW 28 37 15 20 1000.3 1000.3 0.0
24/06:00pm 42.0 36.4 1.0 8 21.5 WNW 20 28 11 15 999.9 999.9 0.0
24/05:30pm 41.8 35.0 0.8 8 21.4 WNW 26 35 14 19 1000.1 1000.1 0.0
24/05:00pm 41.8 35.4 0.8 8 21.3 WNW 24 32 13 17 1000.4 1000.4 0.0
24/04:30pm 41.2 34.2 2.0 9 20.8 WNW 28 35 15 19 1000.8 1000.8 0.0
24/04:00pm 41.3 33.8 3.6 10 20.4 WNW 32 43 17 23 1001.2 1001.2 0.0
24/03:30pm 41.0 33.6 1.9 9 20.7 WNW 30 41 16 22 1001.5 1001.5 0.0
24/03:00pm 41.2 33.6 0.4 8 21.1 WNW 30 41 16 22 1001.9 1001.9 0.0
24/02:30pm 40.9 33.1 1.8 9 20.6 WNW 32 43 17 23 1002.2 1002.2 0.0
24/02:00pm 40.9 33.4 3.3 10 20.2 WNW 32 41 17 22 1002.5 1002.5 0.0
24/01:30pm 40.1 33.1 4.0 11 19.6 WNW 30 43 16 23 1003.0 1003.0 0.0
24/01:00pm 41.0 33.6 1.9 9 20.6 WNW 30 43 16 23 1003.5 1003.5 0.0
24/12:30pm 41.6 33.2 -1.1 7 21.7 WNW 33 44 18 24 1003.6 1003.6 0.0
24/12:00pm 42.5 35.8 1.3 8 21.8 WNW 26 37 14 20 1003.9 1003.9 0.0
24/11:30am 41.8 34.6 -5.5 5 22.5 NNE 24 32 13 17 1004.2 1004.2 0.0
24/11:00am 39.4 32.3 -4.8 6 20.8 NNE 24 32 13 17 1004.5 1004.5 0.0
24/10:30am 38.5 31.7 -5.4 6 20.4 NNE 22 32 12 17 1004.8 1004.8 0.0
24/10:00am 36.8 28.9 -4.6 7 19.2 NE 28 37 15 20 1005.0 1005.0 0.0
24/09:30am 36.2 27.9 -5.0 7 19.0 NE 30 39 16 21 1005.3 1005.3 0.0
24/09:00am 36.2 27.5 -5.0 7 19.0 NE 32 46 17 25 1005.3 1005.3 0.0
24/08:30am 35.8 27.8 -2.0 9 18.2 NE 30 41 16 22 1005.4 1005.4 0.0
24/08:00am 34.1 27.3 0.7 12 16.6 NE 26 35 14 19 1005.4 1005.4 0.0
24/07:30am 33.1 25.9 1.0 13 16.0 NE 28 33 15 18 1005.1 1005.1 0.0
24/07:00am 32.1 26.3 0.2 13 15.5 NNE 20 30 11 16 1004.9 1004.9 0.0
24/06:30am 31.2 25.7 0.6 14 14.9 NE 19 24 10 13 1004.8 1004.8 0.0
24/06:00am 31.0 25.5 0.4 14 14.9 NNE 19 26 10 14 1004.7 1004.7 0.0
24/05:30am 30.9 25.3 1.3 15 14.6 NE 20 26 11 14 1004.5 1004.5 0.0
24/05:00am 30.9 25.3 1.3 15 14.5 NE 20 28 11 15 1004.7 1004.7 0.0
24/04:30am 31.3 24.6 1.6 15 14.8 ENE 26 32 14 17 1004.5 1004.5 0.0
24/04:00am 31.6 24.6 1.8 15 14.8 ENE 28 39 15 21 1004.5 1004.5 0.0
24/03:30am 31.6 25.0 1.8 15 14.9 ENE 26 41 14 22 1004.6 1004.6 0.0
24/03:00am 31.7 24.8 2.8 16 14.7 ENE 28 35 15 19 1004.8 1004.8 0.0
24/02:30am 31.6 25.9 2.7 16 14.6 ENE 22 32 12 17 1005.1 1005.1 0.0
24/02:00am 31.5 25.0 2.7 16 14.5 ENE 26 32 14 17 1005.3 1005.3 0.0
24/01:30am 31.3 23.9 4.2 18 14.1 ENE 32 43 17 23 1005.5 1005.5 0.0
24/01:00am 31.5 24.9 4.3 18 14.1 E 28 37 15 20 1005.9 1005.9 0.0
24/12:34am 31.7 25.0 3.7 17 14.4 E 28 46 15 25 1006.1 1006.1 0.0
24/12:30am 31.6 24.9 3.6 17 14.4 E 28 37 15 20 1006.1 1006.1 0.0
24/12:00am 31.9 25.2 3.8 17 14.5 ESE 28 44 15 24 1006.3 1006.3 0.0
 
Date/Time
CDT
Temp
°C
App
Temp
°C
Dew
Point
°C
Rel
Hum
%
Delta-T
°C
Wind Press
QNH
hPa
Press
MSL
hPa
Rain since
9am
mm
Dir  Spd
km/h
Gust
km/h
Spd
kts
Gust
kts
23/11:30pm 32.0 24.8 3.1 16 14.8 ESE 30 35 16 19 1006.4 1006.4 0.0
23/11:00pm 32.0 25.2 3.1 16 14.7 ESE 28 39 15 21 1006.6 1006.6 0.0
23/10:30pm 32.0 25.2 3.1 16 14.8 ESE 28 39 15 21 1006.6 1006.6 0.0
23/10:00pm 32.4 25.9 2.5 15 15.1 ESE 26 35 14 19 1006.7 1006.7 0.0
23/09:30pm 32.4 26.6 2.5 15 15.2 ESE 22 30 12 16 1006.6 1006.6 0.0
23/09:00pm 32.9 27.4 3.8 16 15.1 ESE 22 33 12 18 1006.6 1006.6 0.0
23/08:30pm 33.8 28.6 3.6 15 15.7 SE 20 28 11 15 1006.7 1006.7 0.0
23/08:00pm 35.3 29.4 3.8 14 16.6 SE 24 33 13 18 1006.4 1006.4 0.0
23/07:30pm 36.4 31.0 -1.5 9 18.5 S 17 22 9 12 1006.3 1006.3 0.0
23/07:00pm 36.9 30.8 -2.7 8 19.0 S 20 28 11 15 1006.2 1006.2 0.0
23/06:30pm 38.5 32.5 -3.4 7 20.1 SSW 19 22 10 12 1005.9 1005.9 0.0
23/06:00pm 39.3 33.7 -2.8 7 20.5 SW 17 22 9 12 1006.0 1006.0 0.0
23/05:30pm 38.7 33.2 -5.3 6 20.5 SW 15 24 8 13 1006.0 1006.0 0.0
23/05:00pm 39.3 33.5 -4.8 6 20.8 WSW 17 24 9 13 1006.2 1006.2 0.0
23/04:30pm 39.8 34.0 -4.5 6 21.1 WSW 17 26 9 14 1006.4 1006.4 0.0
23/04:00pm 39.7 33.3 -6.9 5 21.3 WSW 19 28 10 15 1006.6 1006.6 0.0
23/03:30pm 39.0 32.6 -5.1 6 20.7 WSW 20 28 11 15 1007.0 1007.0 0.0
23/03:00pm 39.4 32.5 -2.7 7 20.5 WSW 24 32 13 17 1007.3 1007.3 0.0
23/02:30pm 39.7 33.6 -2.5 7 20.7 W 20 30 11 16 1007.4 1007.4 0.0
23/02:00pm 39.1 35.0 -2.9 7 20.3 SSE 9 17 5 9 1007.5 1007.5 0.0
23/01:30pm 38.6 33.5 -5.3 6 20.5 NNW 13 20 7 11 1007.9 1007.9 0.0
23/01:00pm 37.9 33.7 -3.8 7 19.8 NE 9 19 5 10 1008.4 1008.4 0.0
23/12:30pm 37.0 32.6 -2.7 8 19.1 N 11 20 6 11 1008.9 1008.9 0.0
23/12:00pm 36.6 31.7 -3.0 8 18.9 NNW 13 20 7 11 1009.2 1009.2 0.0
23/11:30am 36.2 30.8 -1.7 9 18.4 NNE 17 24 9 13 1009.5 1009.5 0.0
23/11:00am 34.7 28.5 -4.4 8 17.9 NNE 19 28 10 15 1009.4 1009.4 0.0
23/10:30am 34.6 28.3 -6.2 7 18.2 N 19 26 10 14 1009.6 1009.6 0.0
23/10:00am 33.2 29.6 -3.9 9 17.0 ENE 6 11 3 6 1009.8 1009.8 0.0
23/09:30am 29.7 27.4 -2.7 12 14.7 CALM 0 4 0 2 1010.1 1010.1 0.0
23/09:00am 28.8 25.5 -1.3 14 13.9 NE 6 7 3 4 1010.1 1010.1 0.0
23/08:30am 26.0 23.4 -4.5 13 13.0 CALM 0 0 0 0 1010.2 1010.2 0.0
23/08:00am 23.1 20.5 -4.9 15 11.5 CALM 0 6 0 3 1010.2 1010.2 0.0
23/07:30am 21.1 18.9 -1.4 22 9.8 CALM 0 0 0 0 1010.2 1010.2 0.0
23/07:00am 17.7 15.3 -0.5 29 7.8 N 2 9 1 5 1010.0 1010.0 0.0
23/06:30am 15.9 12.7 -0.8 32 7.0 ESE 6 7 3 4 1009.9 1009.9 0.0
23/06:00am 17.5 13.9 -3.3 24 8.4 ENE 6 7 3 4 1009.6 1009.6 0.0
23/05:30am 16.9 13.4 -1.2 29 7.6 NE 7 9 4 5 1009.4 1009.4 0.0
23/05:00am 16.4 13.1 0.1 33 7.0 E 7 9 4 5 1009.2 1009.2 0.0
23/04:30am 17.1 15.2 0.3 32 7.3 CALM 0 0 0 0 1009.3 1009.3 0.0
23/04:00am 17.9 15.9 0.1 30 7.7 CALM 0 0 0 0 1009.5 1009.5 0.0
23/03:30am 16.5 14.5 -0.2 32 7.1 CALM 0 0 0 0 1009.5 1009.5 0.0
23/03:00am 18.7 16.8 0.3 29 8.1 CALM 0 6 0 3 1009.5 1009.5 0.0
23/02:30am 17.7 14.5 0.8 32 7.4 W 7 9 4 5 1009.8 1009.8 0.0
23/02:00am 19.3 16.1 -0.7 26 8.7 ENE 6 9 3 5 1009.9 1009.9 0.0
23/01:30am 19.7 16.6 1.2 29 8.4 N 7 9 4 5 1010.1 1010.1 0.0
23/01:00am 20.7 18.7 0.0 25 9.2 CALM 0 0 0 0 1010.0 1010.0 0.0
23/12:30am 21.2 19.0 -1.3 22 9.8 CALM 0 0 0 0 1010.1 1010.1 0.0
23/12:00am 22.5 18.7 -5.4 15 11.3 E 6 7 3 4 1010.2 1010.2 0.0
 
Date/Time
CDT
Temp
°C
App
Temp
°C
Dew
Point
°C
Rel
Hum
%
Delta-T
°C
Wind Press
QNH
hPa
Press
MSL
hPa
Rain since
9am
mm
Dir  Spd
km/h
Gust
km/h
Spd
kts
Gust
kts
22/11:30pm 23.9 19.8 -6.2 13 12.2 E 7 9 4 5 1010.5 1010.5 0.0
22/11:00pm 23.6 19.7 -6.4 13 12.1 NE 6 11 3 6 1010.6 1010.6 0.0
22/10:30pm 24.8 20.1 -5.5 13 12.6 ESE 11 15 6 8 1010.6 1010.6 0.0
22/10:00pm 25.0 20.1 -3.4 15 12.3 SE 13 17 7 9 1010.4 1010.4 0.0
22/09:30pm 25.3 22.1 3.3 24 10.8 SE 9 11 5 6 1010.2 1010.2 0.0
22/09:00pm 27.1 23.2 5.4 25 11.2 SE 15 19 8 10 1009.9 1009.9 0.0
22/08:30pm 27.4 23.3 4.5 23 11.6 SSW 15 17 8 9 1009.7 1009.7 0.0
22/08:00pm 29.8 27.3 8.2 26 11.8 SW 11 15 6 8 1009.5 1009.5 0.0
22/07:30pm 30.2 26.7 8.6 26 12.0 SW 17 22 9 12 1009.4 1009.4 0.0
22/07:00pm 30.9 27.2 8.0 24 12.6 SW 17 22 9 12 1009.2 1009.2 0.0
22/06:30pm 30.9 26.0 5.3 20 13.5 SW 20 26 11 14 1009.2 1009.2 0.0
22/06:00pm 30.1 24.8 6.7 23 12.6 SW 24 30 13 16 1009.3 1009.3 0.0
22/05:30pm 30.3 25.2 6.2 22 12.8 SW 22 30 12 16 1009.4 1009.4 0.0
22/05:00pm 31.0 24.5 0.4 14 14.8 SW 24 30 13 16 1009.6 1009.6 0.0
22/04:30pm 32.0 25.9 0.2 13 15.5 SW 22 28 12 15 1009.6 1009.6 0.0
22/04:00pm 31.8 25.3 0.0 13 15.4 SW 24 32 13 17 1009.9 1009.9 0.0
22/03:30pm 32.1 25.4 -0.9 12 15.8 WSW 24 32 13 17 1010.0 1010.0 0.0
22/03:00pm 32.1 26.3 0.2 13 15.5 SW 20 26 11 14 1010.2 1010.2 0.0
22/02:30pm 31.4 25.2 -0.3 13 15.2 SW 22 30 12 16 1010.4 1010.4 0.0
22/02:00pm 31.6 25.8 -0.1 13 15.3 SW 20 28 11 15 1010.5 1010.5 0.0
22/01:30pm 31.5 26.1 -1.3 12 15.5 SW 17 26 9 14 1010.8 1010.8 0.0
22/01:00pm 31.1 25.5 1.4 15 14.6 WSW 20 28 11 15 1010.9 1010.9 0.0
22/12:30pm 30.3 26.2 2.5 17 13.9 W 13 22 7 12 1011.1 1011.1 0.0
22/12:00pm 29.7 25.5 5.7 22 12.6 W 17 20 9 11 1011.3 1011.3 0.0
22/11:30am 28.1 25.1 6.2 25 11.5 WSW 11 17 6 9 1011.6 1011.6 0.0
22/11:00am 28.1 24.4 4.4 22 12.1 WSW 13 17 7 9 1011.8 1011.8 0.0
22/10:30am 27.2 25.0 5.5 25 11.2 NW 6 13 3 7 1011.9 1011.9 0.0
22/10:00am 26.2 23.5 5.7 27 10.6 WNW 9 17 5 9 1011.7 1011.7 0.0
22/09:30am 25.3 23.5 7.0 31 9.6 NW 6 11 3 6 1011.7 1011.7 0.0
22/09:00am 23.9 22.0 6.7 33 8.9 WNW 6 9 3 5 1011.7 1011.7 0.0
22/08:30am 22.6 21.7 6.0 34 8.4 CALM 0 0 0 0 1011.7 1011.7 0.0
22/08:00am 20.2 18.6 2.5 31 8.2 CALM 0 0 0 0 1011.5 1011.5 0.0
22/07:30am 17.2 15.9 4.2 42 6.1 CALM 0 0 0 0 1011.3 1011.3 0.0
22/07:00am 14.2 13.1 5.0 54 4.3 CALM 0 0 0 0 1011.0 1011.0 0.0
22/06:30am 13.2 11.8 3.3 51 4.4 CALM 0 0 0 0 1010.8 1010.8 0.0
22/06:00am 13.2 10.0 3.0 50 4.5 E 9 11 5 6 1010.6 1010.6 0.0
22/05:30am 14.6 13.4 4.6 51 4.7 CALM 0 0 0 0 1010.2 1010.2 0.0
22/05:00am 13.3 10.7 3.1 50 4.5 SW 6 7 3 4 1009.9 1009.9 0.0
22/04:30am 14.8 13.3 3.0 45 5.3 CALM 0 0 0 0 1009.4 1009.4 0.0
22/04:00am 15.7 14.2 3.2 43 5.7 CALM 0 0 0 0 1009.5 1009.5 0.0
22/03:30am 16.4 14.7 1.7 37 6.5 CALM 0 0 0 0 1009.6 1009.6 0.0
22/03:00am 17.5 14.9 3.4 39 6.5 WNW 6 9 3 5 1009.6 1009.6 0.0
22/02:30am 16.7 13.7 4.1 43 5.9 W 9 11 5 6 1009.7 1009.7 0.0
22/02:00am 18.6 15.7 1.6 32 7.7 NW 6 7 3 4 1009.4 1009.4 0.0
22/01:30am 19.1 16.2 1.6 31 7.9 NNW 6 7 3 4 1009.6 1009.6 0.0
22/01:00am 19.0 16.3 2.4 33 7.6 ENE 6 7 3 4 1009.9 1009.9 0.0
22/12:30am 19.6 16.2 -0.4 26 8.7 ESE 7 9 4 5 1010.3 1010.3 0.0
22/12:00am 20.8 17.1 0.1 25 9.2 SE 9 13 5 7 1010.5 1010.5 0.0
 
Date/Time
CDT
Temp
°C
App
Temp
°C
Dew
Point
°C
Rel
Hum
%
Delta-T
°C
Wind Press
QNH
hPa
Press
MSL
hPa
Rain since
9am
mm
Dir  Spd
km/h
Gust
km/h
Spd
kts
Gust
kts
21/11:30pm 21.9 17.9 0.4 24 9.7 S 11 13 6 7 1010.7 1010.7 0.0
21/11:00pm 22.4 18.8 0.3 23 10.0 SE 9 15 5 8 1010.5 1010.5 0.0
21/10:30pm 23.2 19.2 0.3 22 10.5 ESE 11 13 6 7 1010.6 1010.6 0.0
21/10:00pm 23.3 19.1 1.6 24 10.2 SSE 13 15 7 8 1010.5 1010.5 0.0
21/09:30pm 24.5 20.6 1.4 22 10.9 SE 11 13 6 7 1010.0 1010.0 0.0
21/09:00pm 26.1 21.5 1.4 20 11.8 SSE 15 19 8 10 1009.8 1009.8 0.0

Other formats

Comma delimited format used in spreadsheet applications
http://www.bom.gov.au/fwo/IDS60801/IDS60801.95677.axf

JavaScript Object Notation format (JSON) in row-major order
http://www.bom.gov.au/fwo/IDS60801/IDS60801.95677.json

Data quality

Most of these data are generated automatically and are frequently updated. Quality checks on data are not normally performed. It is possible for incorrect values to appear. Refer to information at About Latest Weather Observations and please check the disclaimer before using these data.